sensor_id;sensor_type;location;lat;lon;timestamp;pressure;altitude;pressure_sealevel;temperature;humidity
6136;BME280;24008;42.664;23.372;2023-04-29T00:00:41;94652.72;;;5.79;58.98
6136;BME280;24008;42.664;23.372;2023-04-29T00:03:08;94794.91;;;6.69;59.44
6136;BME280;24008;42.664;23.372;2023-04-29T00:05:35;94810.72;;;6.83;59.17
6136;BME280;24008;42.664;23.372;2023-04-29T00:08:01;94814.78;;;6.86;59.00
6136;BME280;24008;42.664;23.372;2023-04-29T00:10:29;94809.00;;;6.84;59.35
6136;BME280;24008;42.664;23.372;2023-04-29T00:12:57;94804.84;;;6.83;60.22
6136;BME280;24008;42.664;23.372;2023-04-29T00:15:23;94764.91;;;6.52;60.41
6136;BME280;24008;42.664;23.372;2023-04-29T00:17:50;94786.97;;;6.62;61.26
6136;BME280;24008;42.664;23.372;2023-04-29T00:20:17;94754.06;;;6.38;61.66
6136;BME280;24008;42.664;23.372;2023-04-29T00:22:44;94782.53;;;6.53;61.76
6136;BME280;24008;42.664;23.372;2023-04-29T00:25:11;94739.16;;;6.23;61.84
6136;BME280;24008;42.664;23.372;2023-04-29T00:27:37;94822.63;;;6.72;61.93
6136;BME280;24008;42.664;23.372;2023-04-29T00:30:07;94830.03;;;6.64;62.34
6136;BME280;24008;42.664;23.372;2023-04-29T00:32:34;94828.84;;;6.57;62.32
6136;BME280;24008;42.664;23.372;2023-04-29T00:35:02;94830.69;;;6.55;62.92
6136;BME280;24008;42.664;23.372;2023-04-29T00:37:28;94807.09;;;6.30;63.33
6136;BME280;24008;42.664;23.372;2023-04-29T00:39:55;94828.13;;;6.43;63.20
6136;BME280;24008;42.664;23.372;2023-04-29T00:42:22;94701.31;;;5.51;63.68
6136;BME280;24008;42.664;23.372;2023-04-29T00:44:49;94822.13;;;6.33;64.15
6136;BME280;24008;42.664;23.372;2023-04-29T00:47:17;94822.34;;;6.30;63.77
6136;BME280;24008;42.664;23.372;2023-04-29T00:49:44;94547.03;;;4.54;64.01
6136;BME280;24008;42.664;23.372;2023-04-29T00:52:12;94816.31;;;6.20;63.81
6136;BME280;24008;42.664;23.372;2023-04-29T00:54:40;94815.16;;;6.13;63.96
6136;BME280;24008;42.664;23.372;2023-04-29T00:57:07;94808.69;;;6.09;64.08
6136;BME280;24008;42.664;23.372;2023-04-29T00:59:34;94806.63;;;6.03;63.63
6136;BME280;24008;42.664;23.372;2023-04-29T01:02:02;94803.81;;;5.95;64.03
6136;BME280;24008;42.664;23.372;2023-04-29T01:04:30;94801.09;;;5.85;63.12
6136;BME280;24008;42.664;23.372;2023-04-29T01:07:01;94794.84;;;5.78;63.37
6136;BME280;24008;42.664;23.372;2023-04-29T01:09:42;94795.28;;;5.72;63.94
6136;BME280;24008;42.664;23.372;2023-04-29T01:12:19;94790.66;;;5.66;65.01
6136;BME280;24008;42.664;23.372;2023-04-29T01:14:53;94712.41;;;5.02;65.44
6136;BME280;24008;42.664;23.372;2023-04-29T01:17:47;94810.78;;;5.56;65.78
6136;BME280;24008;42.664;23.372;2023-04-29T01:20:18;94697.34;;;4.88;66.36
6136;BME280;24008;42.664;23.372;2023-04-29T01:22:46;94783.75;;;5.44;66.71
6136;BME280;24008;42.664;23.372;2023-04-29T01:25:14;94783.06;;;5.42;67.20
6136;BME280;24008;42.664;23.372;2023-04-29T01:27:47;94778.69;;;5.44;67.55
6136;BME280;24008;42.664;23.372;2023-04-29T01:30:27;94730.19;;;5.14;67.55
6136;BME280;24008;42.664;23.372;2023-04-29T01:33:02;94782.63;;;5.48;68.16
6136;BME280;24008;42.664;23.372;2023-04-29T01:35:44;94622.56;;;4.48;67.66
6136;BME280;24008;42.664;23.372;2023-04-29T01:38:19;94783.13;;;5.53;67.30
6136;BME280;24008;42.664;23.372;2023-04-29T01:40:57;94792.34;;;5.54;67.08
6136;BME280;24008;42.664;23.372;2023-04-29T01:43:29;94684.59;;;4.90;67.76
6136;BME280;24008;42.664;23.372;2023-04-29T01:45:58;94785.66;;;5.53;67.49
6136;BME280;24008;42.664;23.372;2023-04-29T01:48:25;94750.34;;;5.39;67.96
6136;BME280;24008;42.664;23.372;2023-04-29T01:50:52;94671.81;;;4.91;66.92
6136;BME280;24008;42.664;23.372;2023-04-29T01:53:19;94725.16;;;5.25;66.98
6136;BME280;24008;42.664;23.372;2023-04-29T01:55:46;94772.88;;;5.55;66.66
6136;BME280;24008;42.664;23.372;2023-04-29T01:58:14;94775.28;;;5.56;67.48
6136;BME280;24008;42.664;23.372;2023-04-29T02:00:41;94689.50;;;5.04;66.66
6136;BME280;24008;42.664;23.372;2023-04-29T02:03:08;94778.75;;;5.55;66.24
6136;BME280;24008;42.664;23.372;2023-04-29T02:05:34;94778.75;;;5.55;65.75
6136;BME280;24008;42.664;23.372;2023-04-29T02:08:01;94781.41;;;5.54;65.47
6136;BME280;24008;42.664;23.372;2023-04-29T02:10:28;94776.53;;;5.51;64.82
6136;BME280;24008;42.664;23.372;2023-04-29T02:12:55;94785.66;;;5.53;65.28
6136;BME280;24008;42.664;23.372;2023-04-29T02:15:25;94787.59;;;5.50;65.95
6136;BME280;24008;42.664;23.372;2023-04-29T02:17:52;94702.00;;;4.94;66.72
6136;BME280;24008;42.664;23.372;2023-04-29T02:20:19;94782.38;;;5.40;67.52
6136;BME280;24008;42.664;23.372;2023-04-29T02:22:45;94753.63;;;5.04;68.13
6136;BME280;24008;42.664;23.372;2023-04-29T02:25:12;94779.53;;;5.08;69.92
6136;BME280;24008;42.664;23.372;2023-04-29T02:27:39;94773.84;;;4.93;69.74
6136;BME280;24008;42.664;23.372;2023-04-29T02:30:06;94776.66;;;4.89;69.93
6136;BME280;24008;42.664;23.372;2023-04-29T02:32:35;94785.06;;;4.89;70.43
6136;BME280;24008;42.664;23.372;2023-04-29T02:35:07;94759.63;;;4.67;71.39
6136;BME280;24008;42.664;23.372;2023-04-29T02:37:34;94639.53;;;3.73;71.18
6136;BME280;24008;42.664;23.372;2023-04-29T02:40:01;94799.19;;;4.81;72.29
6136;BME280;24008;42.664;23.372;2023-04-29T02:42:28;94779.84;;;4.80;72.81
6136;BME280;24008;42.664;23.372;2023-04-29T02:44:55;94779.66;;;4.70;73.91
6136;BME280;24008;42.664;23.372;2023-04-29T02:47:22;94777.44;;;4.65;74.30
6136;BME280;24008;42.664;23.372;2023-04-29T02:49:50;94553.81;;;3.19;73.87
6136;BME280;24008;42.664;23.372;2023-04-29T02:52:17;94724.16;;;4.18;73.78
6136;BME280;24008;42.664;23.372;2023-04-29T02:54:44;94787.78;;;4.50;74.79
6136;BME280;24008;42.664;23.372;2023-04-29T02:57:11;94783.94;;;4.44;75.63
6136;BME280;24008;42.664;23.372;2023-04-29T02:59:37;94763.38;;;4.23;76.32
6136;BME280;24008;42.664;23.372;2023-04-29T03:02:04;94766.97;;;4.21;75.59
6136;BME280;24008;42.664;23.372;2023-04-29T03:04:31;94680.66;;;3.49;75.90
6136;BME280;24008;42.664;23.372;2023-04-29T03:06:59;94811.44;;;4.23;77.02
6136;BME280;24008;42.664;23.372;2023-04-29T03:09:27;94522.22;;;2.36;76.80
6136;BME280;24008;42.664;23.372;2023-04-29T03:11:53;94684.19;;;3.34;77.39
6136;BME280;24008;42.664;23.372;2023-04-29T03:14:20;94583.31;;;2.66;78.25
6136;BME280;24008;42.664;23.372;2023-04-29T03:16:47;94742.34;;;3.72;78.24
6136;BME280;24008;42.664;23.372;2023-04-29T03:19:14;94731.34;;;3.73;78.76
6136;BME280;24008;42.664;23.372;2023-04-29T03:21:41;94779.09;;;4.03;79.42
6136;BME280;24008;42.664;23.372;2023-04-29T03:24:10;94761.28;;;3.92;79.06
6136;BME280;24008;42.664;23.372;2023-04-29T03:26:37;94740.75;;;3.84;79.42
6136;BME280;24008;42.664;23.372;2023-04-29T03:29:03;94818.03;;;4.26;79.14
6136;BME280;24008;42.664;23.372;2023-04-29T03:31:30;94816.50;;;4.23;79.53
6136;BME280;24008;42.664;23.372;2023-04-29T03:33:58;94823.81;;;4.15;79.77
6136;BME280;24008;42.664;23.372;2023-04-29T03:36:25;94792.72;;;3.88;79.56
6136;BME280;24008;42.664;23.372;2023-04-29T03:38:52;94836.88;;;4.09;79.47
6136;BME280;24008;42.664;23.372;2023-04-29T03:41:20;94798.56;;;3.88;78.90
6136;BME280;24008;42.664;23.372;2023-04-29T03:43:48;94818.72;;;4.03;79.18
6136;BME280;24008;42.664;23.372;2023-04-29T03:46:15;94808.81;;;3.99;79.77
6136;BME280;24008;42.664;23.372;2023-04-29T03:48:42;94848.94;;;4.31;80.44
6136;BME280;24008;42.664;23.372;2023-04-29T03:51:09;94851.25;;;4.34;80.56
6136;BME280;24008;42.664;23.372;2023-04-29T03:53:36;94834.13;;;4.38;80.44
6136;BME280;24008;42.664;23.372;2023-04-29T03:56:04;94832.13;;;4.43;79.93
6136;BME280;24008;42.664;23.372;2023-04-29T03:58:32;94831.22;;;4.69;80.27
6136;BME280;24008;42.664;23.372;2023-04-29T04:00:59;94823.19;;;4.75;79.85
6136;BME280;24008;42.664;23.372;2023-04-29T04:03:26;94815.88;;;4.83;80.42
6136;BME280;24008;42.664;23.372;2023-04-29T04:05:53;94812.72;;;4.92;79.53
6136;BME280;24008;42.664;23.372;2023-04-29T04:08:20;94819.59;;;5.03;78.40
6136;BME280;24008;42.664;23.372;2023-04-29T04:10:46;94815.72;;;5.10;78.73
6136;BME280;24008;42.664;23.372;2023-04-29T04:13:13;94765.75;;;4.76;79.84
6136;BME280;24008;42.664;23.372;2023-04-29T04:15:41;94829.78;;;5.14;79.85
6136;BME280;24008;42.664;23.372;2023-04-29T04:18:09;94834.25;;;5.11;79.55
6136;BME280;24008;42.664;23.372;2023-04-29T04:20:35;94714.94;;;4.29;79.49
6136;BME280;24008;42.664;23.372;2023-04-29T04:23:02;94825.47;;;5.03;78.95
6136;BME280;24008;42.664;23.372;2023-04-29T04:25:29;94833.44;;;5.10;79.62
6136;BME280;24008;42.664;23.372;2023-04-29T04:27:56;94766.84;;;4.84;78.61
6136;BME280;24008;42.664;23.372;2023-04-29T04:30:23;94828.50;;;5.32;77.47
6136;BME280;24008;42.664;23.372;2023-04-29T04:32:51;94820.66;;;5.48;77.12
6136;BME280;24008;42.664;23.372;2023-04-29T04:35:18;94818.88;;;5.61;76.70
6136;BME280;24008;42.664;23.372;2023-04-29T04:37:45;94823.78;;;5.75;76.78
6136;BME280;24008;42.664;23.372;2023-04-29T04:40:12;94826.63;;;5.95;75.28
6136;BME280;24008;42.664;23.372;2023-04-29T04:42:39;94795.75;;;6.01;72.39
6136;BME280;24008;42.664;23.372;2023-04-29T04:45:07;94820.59;;;6.31;74.50
6136;BME280;24008;42.664;23.372;2023-04-29T04:47:35;94821.53;;;6.41;75.02
6136;BME280;24008;42.664;23.372;2023-04-29T04:50:05;94819.38;;;6.47;74.70
6136;BME280;24008;42.664;23.372;2023-04-29T04:52:32;94841.31;;;6.60;74.12
6136;BME280;24008;42.664;23.372;2023-04-29T04:54:58;94835.31;;;6.61;72.66
6136;BME280;24008;42.664;23.372;2023-04-29T04:57:25;94802.75;;;6.43;70.89
6136;BME280;24008;42.664;23.372;2023-04-29T04:59:52;94831.16;;;6.93;70.23
6136;BME280;24008;42.664;23.372;2023-04-29T05:02:19;94831.38;;;7.23;68.56
6136;BME280;24008;42.664;23.372;2023-04-29T05:04:45;94830.28;;;7.48;67.99
6136;BME280;24008;42.664;23.372;2023-04-29T05:07:14;94694.53;;;6.97;67.57
6136;BME280;24008;42.664;23.372;2023-04-29T05:09:40;94814.13;;;8.02;66.07
6136;BME280;24008;42.664;23.372;2023-04-29T05:12:07;94715.16;;;7.67;64.40
6136;BME280;24008;42.664;23.372;2023-04-29T05:14:34;94809.44;;;8.39;62.16
6136;BME280;24008;42.664;23.372;2023-04-29T05:17:00;94803.09;;;8.54;61.97
6136;BME280;24008;42.664;23.372;2023-04-29T05:19:27;94806.13;;;8.48;61.46
6136;BME280;24008;42.664;23.372;2023-04-29T05:21:54;94804.34;;;8.39;61.13
6136;BME280;24008;42.664;23.372;2023-04-29T05:24:22;94795.84;;;8.59;61.09
6136;BME280;24008;42.664;23.372;2023-04-29T05:26:49;94786.25;;;8.73;60.44
6136;BME280;24008;42.664;23.372;2023-04-29T05:29:18;94780.84;;;9.06;60.35
6136;BME280;24008;42.664;23.372;2023-04-29T05:31:45;94757.66;;;9.09;58.70
6136;BME280;24008;42.664;23.372;2023-04-29T05:34:12;94768.06;;;9.56;57.98
6136;BME280;24008;42.664;23.372;2023-04-29T05:36:38;94753.84;;;9.72;57.35
6136;BME280;24008;42.664;23.372;2023-04-29T05:39:05;94783.78;;;10.19;56.16
6136;BME280;24008;42.664;23.372;2023-04-29T05:41:33;94729.75;;;10.23;55.65
6136;BME280;24008;42.664;23.372;2023-04-29T05:44:00;94787.28;;;11.01;54.18
6136;BME280;24008;42.664;23.372;2023-04-29T05:46:27;94786.25;;;10.94;53.08
6136;BME280;24008;42.664;23.372;2023-04-29T05:48:54;94778.00;;;11.00;54.44
6136;BME280;24008;42.664;23.372;2023-04-29T05:51:20;94777.19;;;11.00;53.94
6136;BME280;24008;42.664;23.372;2023-04-29T05:53:47;94775.28;;;11.29;53.48
6136;BME280;24008;42.664;23.372;2023-04-29T05:56:14;94722.84;;;10.70;53.27
6136;BME280;24008;42.664;23.372;2023-04-29T05:58:42;94683.84;;;10.68;53.87
6136;BME280;24008;42.664;23.372;2023-04-29T06:01:09;94703.06;;;11.53;53.13
6136;BME280;24008;42.664;23.372;2023-04-29T06:03:37;94729.38;;;12.76;49.91
6136;BME280;24008;42.664;23.372;2023-04-29T06:06:07;94759.81;;;13.96;47.60
6136;BME280;24008;42.664;23.372;2023-04-29T06:08:35;94644.78;;;14.14;45.02
6136;BME280;24008;42.664;23.372;2023-04-29T06:11:01;94784.72;;;15.77;43.39
6136;BME280;24008;42.664;23.372;2023-04-29T06:13:29;94779.22;;;16.26;41.16
6136;BME280;24008;42.664;23.372;2023-04-29T06:15:58;94749.78;;;16.35;41.48
6136;BME280;24008;42.664;23.372;2023-04-29T06:18:25;94775.97;;;17.50;38.95
6136;BME280;24008;42.664;23.372;2023-04-29T06:20:52;94772.34;;;17.80;38.29
6136;BME280;24008;42.664;23.372;2023-04-29T06:23:18;94707.25;;;17.19;36.47
6136;BME280;24008;42.664;23.372;2023-04-29T06:25:45;94705.94;;;17.45;37.09
6136;BME280;24008;42.664;23.372;2023-04-29T06:28:12;94733.31;;;17.96;36.76
6136;BME280;24008;42.664;23.372;2023-04-29T06:30:39;94728.28;;;18.65;34.91
6136;BME280;24008;42.664;23.372;2023-04-29T06:33:07;94781.19;;;19.19;34.60
6136;BME280;24008;42.664;23.372;2023-04-29T06:35:38;94795.91;;;19.53;32.83
6136;BME280;24008;42.664;23.372;2023-04-29T06:38:04;94786.47;;;18.48;33.55
6136;BME280;24008;42.664;23.372;2023-04-29T06:40:32;94722.56;;;17.99;34.49
6136;BME280;24008;42.664;23.372;2023-04-29T06:42:59;94630.16;;;17.59;34.85
6136;BME280;24008;42.664;23.372;2023-04-29T06:45:26;94735.16;;;19.27;33.29
6136;BME280;24008;42.664;23.372;2023-04-29T06:47:53;94781.53;;;19.50;32.99
6136;BME280;24008;42.664;23.372;2023-04-29T06:50:21;94780.47;;;19.99;31.85
6136;BME280;24008;42.664;23.372;2023-04-29T06:52:48;94787.28;;;20.33;31.75
6136;BME280;24008;42.664;23.372;2023-04-29T06:55:15;94782.53;;;20.63;31.26
6136;BME280;24008;42.664;23.372;2023-04-29T06:57:42;94787.09;;;20.34;31.61
6136;BME280;24008;42.664;23.372;2023-04-29T07:00:09;94787.84;;;19.41;32.82
6136;BME280;24008;42.664;23.372;2023-04-29T07:02:36;94726.66;;;17.87;35.48
6136;BME280;24008;42.664;23.372;2023-04-29T07:05:03;94785.84;;;17.61;35.39
6136;BME280;24008;42.664;23.372;2023-04-29T07:07:32;94778.00;;;17.54;36.74
6136;BME280;24008;42.664;23.372;2023-04-29T07:09:58;94777.72;;;16.99;37.29
6136;BME280;24008;42.664;23.372;2023-04-29T07:12:25;94781.44;;;16.06;38.74
6136;BME280;24008;42.664;23.372;2023-04-29T07:14:52;94714.28;;;15.62;39.98
6136;BME280;24008;42.664;23.372;2023-04-29T07:17:18;94674.34;;;16.04;39.13
6136;BME280;24008;42.664;23.372;2023-04-29T07:19:45;94743.28;;;17.42;37.23
6136;BME280;24008;42.664;23.372;2023-04-29T07:22:12;94766.75;;;17.26;36.88
6136;BME280;24008;42.664;23.372;2023-04-29T07:24:40;94769.97;;;16.84;38.11
6136;BME280;24008;42.664;23.372;2023-04-29T07:27:07;94717.41;;;16.47;38.59
6136;BME280;24008;42.664;23.372;2023-04-29T07:29:34;94764.53;;;17.59;38.24
6136;BME280;24008;42.664;23.372;2023-04-29T07:32:00;94764.84;;;18.07;36.71
6136;BME280;24008;42.664;23.372;2023-04-29T07:34:27;94769.19;;;17.49;36.92
6136;BME280;24008;42.664;23.372;2023-04-29T07:36:54;94764.53;;;17.59;37.84
6136;BME280;24008;42.664;23.372;2023-04-29T07:39:21;94704.38;;;18.08;37.33
6136;BME280;24008;42.664;23.372;2023-04-29T07:41:49;94767.00;;;19.56;36.40
6136;BME280;24008;42.664;23.372;2023-04-29T07:44:16;94762.94;;;20.47;32.96
6136;BME280;24008;42.664;23.372;2023-04-29T07:46:43;94766.06;;;19.96;32.51
6136;BME280;24008;42.664;23.372;2023-04-29T07:49:12;94769.31;;;20.11;32.29
6136;BME280;24008;42.664;23.372;2023-04-29T07:51:41;94764.16;;;20.38;32.95
6136;BME280;24008;42.664;23.372;2023-04-29T07:54:08;94724.00;;;20.27;32.83
6136;BME280;24008;42.664;23.372;2023-04-29T07:56:35;94753.25;;;21.07;31.77
6136;BME280;24008;42.664;23.372;2023-04-29T07:59:03;94750.34;;;21.41;30.29
6136;BME280;24008;42.664;23.372;2023-04-29T08:01:30;94745.84;;;21.62;29.99
6136;BME280;24008;42.664;23.372;2023-04-29T08:03:57;94745.25;;;21.98;29.47
6136;BME280;24008;42.664;23.372;2023-04-29T08:06:24;94740.69;;;22.24;28.99
6136;BME280;24008;42.664;23.372;2023-04-29T08:08:51;94756.41;;;22.11;28.70
6136;BME280;24008;42.664;23.372;2023-04-29T08:11:18;94745.69;;;21.95;28.96
6136;BME280;24008;42.664;23.372;2023-04-29T08:13:46;94715.28;;;21.88;28.70
6136;BME280;24008;42.664;23.372;2023-04-29T08:16:14;94707.13;;;21.85;28.80
6136;BME280;24008;42.664;23.372;2023-04-29T08:18:41;94741.13;;;22.21;28.04
6136;BME280;24008;42.664;23.372;2023-04-29T08:21:08;94732.69;;;21.56;29.43
6136;BME280;24008;42.664;23.372;2023-04-29T08:23:36;94586.25;;;20.87;29.38
6136;BME280;24008;42.664;23.372;2023-04-29T08:26:03;94736.63;;;22.04;28.80
6136;BME280;24008;42.664;23.372;2023-04-29T08:28:30;94731.53;;;21.84;28.43
6136;BME280;24008;42.664;23.372;2023-04-29T08:30:56;94726.50;;;21.89;27.80
6136;BME280;24008;42.664;23.372;2023-04-29T08:33:25;94727.56;;;21.75;27.55
6136;BME280;24008;42.664;23.372;2023-04-29T08:35:57;94726.44;;;21.64;27.53
6136;BME280;24008;42.664;23.372;2023-04-29T08:38:24;94735.09;;;21.51;27.26
6136;BME280;24008;42.664;23.372;2023-04-29T08:40:52;94720.22;;;21.72;28.75
6136;BME280;24008;42.664;23.372;2023-04-29T08:43:19;94680.22;;;21.66;27.95
6136;BME280;24008;42.664;23.372;2023-04-29T08:45:47;94550.34;;;20.70;27.66
6136;BME280;24008;42.664;23.372;2023-04-29T08:48:15;94735.44;;;21.24;28.17
6136;BME280;24008;42.664;23.372;2023-04-29T08:50:44;94721.38;;;20.67;27.85
6136;BME280;24008;42.664;23.372;2023-04-29T08:53:12;94717.59;;;20.56;28.43
6136;BME280;24008;42.664;23.372;2023-04-29T08:55:41;94718.19;;;20.19;29.43
6136;BME280;24008;42.664;23.372;2023-04-29T08:58:09;94692.44;;;20.24;30.55
6136;BME280;24008;42.664;23.372;2023-04-29T09:00:36;94713.34;;;20.88;28.86
6136;BME280;24008;42.664;23.372;2023-04-29T09:03:11;94704.41;;;21.29;29.46
6136;BME280;24008;42.664;23.372;2023-04-29T09:05:40;94693.50;;;22.14;28.37
6136;BME280;24008;42.664;23.372;2023-04-29T09:08:10;94695.66;;;22.85;28.13
6136;BME280;24008;42.664;23.372;2023-04-29T09:10:38;94699.25;;;22.66;28.53
6136;BME280;24008;42.664;23.372;2023-04-29T09:13:07;94569.31;;;21.47;28.62
6136;BME280;24008;42.664;23.372;2023-04-29T09:15:35;94704.59;;;22.53;27.81
6136;BME280;24008;42.664;23.372;2023-04-29T09:18:04;94695.16;;;22.34;27.13
6136;BME280;24008;42.664;23.372;2023-04-29T09:20:31;94686.56;;;22.08;26.98
6136;BME280;24008;42.664;23.372;2023-04-29T09:23:00;94451.09;;;20.93;27.05
6136;BME280;24008;42.664;23.372;2023-04-29T09:25:29;94685.69;;;23.01;25.42
6136;BME280;24008;42.664;23.372;2023-04-29T09:27:56;94690.47;;;23.04;25.91
6136;BME280;24008;42.664;23.372;2023-04-29T09:30:23;94688.13;;;23.14;25.61
6136;BME280;24008;42.664;23.372;2023-04-29T09:33:04;94489.56;;;21.84;25.93
6136;BME280;24008;42.664;23.372;2023-04-29T09:35:32;94680.44;;;22.82;26.06
6136;BME280;24008;42.664;23.372;2023-04-29T09:38:08;94670.97;;;22.26;25.59
6136;BME280;24008;42.664;23.372;2023-04-29T09:40:36;94639.72;;;21.77;27.10
6136;BME280;24008;42.664;23.372;2023-04-29T09:43:10;94663.53;;;21.42;27.76
6136;BME280;24008;42.664;23.372;2023-04-29T09:45:39;94532.19;;;19.99;28.78
6136;BME280;24008;42.664;23.372;2023-04-29T09:48:07;94669.03;;;20.76;27.54
6136;BME280;24008;42.664;23.372;2023-04-29T09:50:35;94670.16;;;20.94;28.71
6136;BME280;24008;42.664;23.372;2023-04-29T09:53:03;94567.47;;;21.16;28.32
6136;BME280;24008;42.664;23.372;2023-04-29T09:55:30;94551.41;;;21.82;27.97
6136;BME280;24008;42.664;23.372;2023-04-29T09:57:58;94624.00;;;22.15;26.45
6136;BME280;24008;42.664;23.372;2023-04-29T10:00:30;94650.25;;;22.13;27.13
6136;BME280;24008;42.664;23.372;2023-04-29T10:02:58;94645.38;;;22.42;26.09
6136;BME280;24008;42.664;23.372;2023-04-29T10:05:27;94641.25;;;22.71;26.21
6136;BME280;24008;42.664;23.372;2023-04-29T10:07:57;94641.06;;;23.09;27.01
6136;BME280;24008;42.664;23.372;2023-04-29T10:10:26;94613.72;;;22.45;26.75
6136;BME280;24008;42.664;23.372;2023-04-29T10:12:54;94636.69;;;22.48;26.89
6136;BME280;24008;42.664;23.372;2023-04-29T10:15:28;94598.19;;;22.13;27.37
6136;BME280;24008;42.664;23.372;2023-04-29T10:17:59;94624.63;;;22.10;26.49
6136;BME280;24008;42.664;23.372;2023-04-29T10:20:29;94631.16;;;21.38;27.33
6136;BME280;24008;42.664;23.372;2023-04-29T10:22:56;94619.50;;;21.09;27.93
6136;BME280;24008;42.664;23.372;2023-04-29T10:25:24;94622.31;;;20.63;28.62
6136;BME280;24008;42.664;23.372;2023-04-29T10:27:54;94616.69;;;20.73;29.58
6136;BME280;24008;42.664;23.372;2023-04-29T10:30:23;94612.16;;;21.00;28.61
6136;BME280;24008;42.664;23.372;2023-04-29T10:32:50;94478.31;;;19.95;27.10
6136;BME280;24008;42.664;23.372;2023-04-29T10:35:17;94532.97;;;20.06;28.00
6136;BME280;24008;42.664;23.372;2023-04-29T10:37:47;94605.88;;;20.76;27.67
6136;BME280;24008;42.664;23.372;2023-04-29T10:40:16;94548.06;;;20.29;28.00
6136;BME280;24008;42.664;23.372;2023-04-29T10:42:47;94619.75;;;20.50;29.08
6136;BME280;24008;42.664;23.372;2023-04-29T10:45:23;94600.00;;;20.36;27.76
6136;BME280;24008;42.664;23.372;2023-04-29T10:48:10;94610.38;;;20.29;28.45
6136;BME280;24008;42.664;23.372;2023-04-29T10:51:00;94608.03;;;19.88;28.16
6136;BME280;24008;42.664;23.372;2023-04-29T10:53:30;94362.03;;;18.35;30.00
6136;BME280;24008;42.664;23.372;2023-04-29T10:56:12;94604.63;;;20.07;29.60
6136;BME280;24008;42.664;23.372;2023-04-29T10:58:43;94556.56;;;19.72;28.71
6136;BME280;24008;42.664;23.372;2023-04-29T11:01:12;94545.41;;;19.78;28.75
6136;BME280;24008;42.664;23.372;2023-04-29T11:03:54;94559.16;;;19.72;28.48
6136;BME280;24008;42.664;23.372;2023-04-29T11:06:24;94598.63;;;20.13;28.53
6136;BME280;24008;42.664;23.372;2023-04-29T11:09:01;94540.59;;;19.95;28.35
6136;BME280;24008;42.664;23.372;2023-04-29T11:11:45;94547.56;;;19.94;27.48
6136;BME280;24008;42.664;23.372;2023-04-29T11:14:14;94598.41;;;20.22;28.33
6136;BME280;24008;42.664;23.372;2023-04-29T11:16:51;94597.81;;;20.26;29.31
6136;BME280;24008;42.664;23.372;2023-04-29T11:19:18;94498.75;;;19.38;29.93
6136;BME280;24008;42.664;23.372;2023-04-29T11:21:46;94500.72;;;19.10;28.38
6136;BME280;24008;42.664;23.372;2023-04-29T11:24:13;94494.34;;;18.93;29.50
6136;BME280;24008;42.664;23.372;2023-04-29T11:26:42;94403.59;;;18.27;29.38
6136;BME280;24008;42.664;23.372;2023-04-29T11:29:10;94596.41;;;19.44;29.52
6136;BME280;24008;42.664;23.372;2023-04-29T11:31:37;94594.84;;;19.37;28.61
6136;BME280;24008;42.664;23.372;2023-04-29T11:34:06;94591.22;;;19.25;28.94
6136;BME280;24008;42.664;23.372;2023-04-29T11:36:33;94483.41;;;18.30;29.35
6136;BME280;24008;42.664;23.372;2023-04-29T11:39:01;94410.22;;;17.88;29.72
6136;BME280;24008;42.664;23.372;2023-04-29T11:41:29;94432.19;;;18.06;30.20
6136;BME280;24008;42.664;23.372;2023-04-29T11:43:57;94583.25;;;19.26;30.72
6136;BME280;24008;42.664;23.372;2023-04-29T11:46:24;94466.44;;;18.68;30.99
6136;BME280;24008;42.664;23.372;2023-04-29T11:48:53;94586.09;;;19.58;30.50
6136;BME280;24008;42.664;23.372;2023-04-29T11:51:21;94586.69;;;19.60;30.12
6136;BME280;24008;42.664;23.372;2023-04-29T11:53:48;94440.13;;;18.58;30.22
6136;BME280;24008;42.664;23.372;2023-04-29T11:56:20;93837.16;;;14.76;29.77
6136;BME280;24008;42.664;23.372;2023-04-29T11:58:48;94016.69;;;15.85;30.39
6136;BME280;24008;42.664;23.372;2023-04-29T12:01:15;94408.94;;;18.19;30.99
6136;BME280;24008;42.664;23.372;2023-04-29T12:03:42;94582.25;;;19.21;30.18
6136;BME280;24008;42.664;23.372;2023-04-29T12:06:12;94588.19;;;18.95;29.83
6136;BME280;24008;42.664;23.372;2023-04-29T12:08:40;94582.75;;;18.77;31.56
6136;BME280;24008;42.664;23.372;2023-04-29T12:11:07;94588.22;;;18.54;32.32
6136;BME280;24008;42.664;23.372;2023-04-29T12:13:34;94579.69;;;18.60;32.37
6136;BME280;24008;42.664;23.372;2023-04-29T12:16:02;94578.94;;;18.31;33.17
6136;BME280;24008;42.664;23.372;2023-04-29T12:18:29;94587.28;;;18.27;33.64
6136;BME280;24008;42.664;23.372;2023-04-29T12:20:56;94579.69;;;18.19;34.21
6136;BME280;24008;42.664;23.372;2023-04-29T12:23:24;94530.53;;;17.84;33.45
6136;BME280;24008;42.664;23.372;2023-04-29T12:25:55;94579.44;;;18.14;34.11
6136;BME280;24008;42.664;23.372;2023-04-29T12:28:22;94570.47;;;18.10;35.10
6136;BME280;24008;42.664;23.372;2023-04-29T12:30:51;94575.03;;;18.08;34.94
6136;BME280;24008;42.664;23.372;2023-04-29T12:33:18;94566.50;;;18.14;34.87
6136;BME280;24008;42.664;23.372;2023-04-29T12:35:47;94566.94;;;18.17;33.92
6136;BME280;24008;42.664;23.372;2023-04-29T12:38:18;94399.19;;;17.04;34.27
6136;BME280;24008;42.664;23.372;2023-04-29T12:40:45;94564.47;;;18.03;33.46
6136;BME280;24008;42.664;23.372;2023-04-29T12:43:13;94481.78;;;17.53;34.92
6136;BME280;24008;42.664;23.372;2023-04-29T12:45:40;94561.88;;;18.03;35.10
6136;BME280;24008;42.664;23.372;2023-04-29T12:48:07;94560.09;;;18.03;35.38
6136;BME280;24008;42.664;23.372;2023-04-29T12:50:35;94487.38;;;17.57;35.03
6136;BME280;24008;42.664;23.372;2023-04-29T12:53:03;94524.31;;;18.07;35.71
6136;BME280;24008;42.664;23.372;2023-04-29T12:55:31;94552.38;;;18.57;35.89
6136;BME280;24008;42.664;23.372;2023-04-29T12:57:59;94489.16;;;18.25;36.37
6136;BME280;24008;42.664;23.372;2023-04-29T13:00:27;94546.06;;;18.73;35.12
6136;BME280;24008;42.664;23.372;2023-04-29T13:02:54;94566.03;;;18.79;34.84
6136;BME280;24008;42.664;23.372;2023-04-29T13:05:21;94542.56;;;18.94;34.35
6136;BME280;24008;42.664;23.372;2023-04-29T13:07:48;94540.34;;;18.97;35.33
6136;BME280;24008;42.664;23.372;2023-04-29T13:10:15;94543.78;;;19.04;34.63